Time;durP1;ratioP1;P1;durP2;ratioP2;P2;SDS_P1;SDS_P2;PMS_P1;PMS_P2;Temp;Humidity;BMP_temperature;BMP_pressure;BME280_temperature;BME280_humidity;BME280_pressure;Samples;Min_cycle;Max_cycle;Signal;HPM_P1;HPM_P2
2023/05/01 00:00:13;;;;;;;8.20;4.07;;;6.70;1.00;;;;;;5071032;28;20397;-84
2023/05/01 00:02:38;;;;;;;6.80;3.60;;;6.70;1.00;;;;;;5069681;28;20493;-84
2023/05/01 00:05:06;;;;;;;8.07;3.42;;;6.70;1.00;;;;;;5074113;28;20092;-84
2023/05/01 00:07:32;;;;;;;9.68;3.75;;;6.70;1.00;;;;;;5062880;28;20501;-88
2023/05/01 00:09:57;;;;;;;6.05;3.42;;;6.60;1.00;;;;;;5058657;28;20067;-86
2023/05/01 00:12:24;;;;;;;8.85;3.70;;;6.60;1.00;;;;;;5067122;28;20532;-84
2023/05/01 00:14:50;;;;;;;7.00;3.95;;;6.50;1.00;;;;;;5084207;28;21459;-83
2023/05/01 00:17:16;;;;;;;6.45;3.95;;;6.50;1.00;;;;;;5043195;28;20119;-84
2023/05/01 00:19:41;;;;;;;10.32;3.85;;;6.50;1.00;;;;;;5046603;28;20037;-84
2023/05/01 00:22:11;;;;;;;7.55;4.03;;;6.50;1.00;;;;;;5063806;28;20505;-84
2023/05/01 00:24:36;;;;;;;7.13;3.88;;;6.50;1.00;;;;;;5016785;28;20056;-89
2023/05/01 00:27:02;;;;;;;5.85;3.65;;;6.50;1.00;;;;;;5064906;28;20075;-84
2023/05/01 00:29:28;;;;;;;5.88;3.53;;;6.50;1.00;;;;;;5060574;28;20048;-84
2023/05/01 00:31:54;;;;;;;6.85;4.00;;;6.50;1.00;;;;;;5044709;28;20444;-84
2023/05/01 00:34:20;;;;;;;9.68;3.75;;;6.50;1.00;;;;;;5044451;28;20481;-86
2023/05/01 00:36:46;;;;;;;6.38;3.63;;;6.50;1.00;;;;;;5069501;28;20047;-86
2023/05/01 00:39:11;;;;;;;8.90;4.32;;;6.50;1.00;;;;;;5081705;28;20043;-85
2023/05/01 00:41:37;;;;;;;6.90;4.13;;;6.40;1.00;;;;;;5061817;28;20044;-89
2023/05/01 00:44:03;;;;;;;7.28;4.32;;;6.80;1.00;;;;;;5044168;28;20047;-88
2023/05/01 00:46:30;;;;;;;10.05;4.05;;;6.40;1.00;;;;;;5066760;28;20079;-85
2023/05/01 00:48:57;;;;;;;7.65;3.85;;;6.50;1.00;;;;;;5043089;28;20719;-88
2023/05/01 00:51:26;;;;;;;11.02;3.83;;;6.40;1.00;;;;;;5063490;28;20130;-85
2023/05/01 00:53:51;;;;;;;9.05;3.42;;;6.40;1.00;;;;;;5084064;28;20082;-84
2023/05/01 00:56:17;;;;;;;10.30;3.33;;;6.30;1.00;;;;;;5026439;28;20115;-84
2023/05/01 00:58:52;;;;;;;7.85;4.18;;;6.30;1.00;;;;;;5044595;28;20032;-85
2023/05/01 01:01:19;;;;;;;7.97;3.38;;;6.30;1.00;;;;;;5089455;28;20048;-85
2023/05/01 01:03:45;;;;;;;5.82;3.80;;;6.20;1.00;;;;;;5061592;28;20048;-84
2023/05/01 01:06:48;;;;;;;7.82;3.63;;;6.20;18.70;;;;;;5057465;28;20048;-84
2023/05/01 01:09:56;;;;;;;8.30;3.70;;;6.20;37.90;;;;;;5053359;28;20043;-84
2023/05/01 01:12:52;;;;;;;7.85;3.75;;;6.10;22.10;;;;;;5022638;28;20058;-84
2023/05/01 01:15:48;;;;;;;7.65;3.92;;;6.00;27.20;;;;;;5067663;28;20040;-86
2023/05/01 01:18:43;;;;;;;6.90;3.65;;;6.00;17.00;;;;;;5046713;28;20048;-86
2023/05/01 01:21:25;;;;;;;8.20;4.00;;;5.90;18.70;;;;;;5067063;28;20045;-84
2023/05/01 01:24:17;;;;;;;6.70;3.97;;;5.80;21.20;;;;;;5050401;28;20054;-84
2023/05/01 01:27:19;;;;;;;6.70;4.00;;;5.80;27.40;;;;;;5081424;28;20055;-87
2023/05/01 01:30:15;;;;;;;11.98;5.82;;;5.70;45.50;;;;;;5076458;28;20150;-86
2023/05/01 01:33:21;;;;;;;8.23;3.78;;;5.60;67.80;;;;;;5084135;28;20071;-84
2023/05/01 01:35:55;;;;;;;7.93;3.88;;;5.60;80.70;;;;;;5056882;28;20047;-86
2023/05/01 01:38:27;;;;;;;10.02;4.03;;;5.60;78.60;;;;;;5062219;28;20051;-83
2023/05/01 01:40:58;;;;;;;9.10;3.70;;;5.60;81.20;;;;;;5058986;28;20508;-84
2023/05/01 01:43:25;;;;;;;11.30;3.72;;;5.60;93.10;;;;;;5076105;28;20047;-87
2023/05/01 01:46:02;;;;;;;6.65;4.30;;;5.60;99.90;;;;;;5057821;28;20093;-84
2023/05/01 01:48:41;;;;;;;8.07;3.85;;;5.60;99.90;;;;;;5077569;28;20048;-84
2023/05/01 01:51:17;;;;;;;8.73;4.15;;;5.60;99.90;;;;;;5074293;28;20084;-84
2023/05/01 01:53:55;;;;;;;6.55;4.10;;;5.70;99.90;;;;;;5073289;28;20543;-84
2023/05/01 01:56:21;;;;;;;9.80;4.28;;;5.70;99.90;;;;;;5076827;28;20485;-84
2023/05/01 01:58:50;;;;;;;8.82;3.80;;;5.70;99.90;;;;;;5051649;28;20401;-86
2023/05/01 02:01:16;;;;;;;8.20;4.07;;;5.70;99.90;;;;;;5054780;28;20119;-86
2023/05/01 02:03:44;;;;;;;9.48;4.10;;;5.70;99.90;;;;;;5059183;28;20434;-84
2023/05/01 02:06:12;;;;;;;7.05;4.22;;;5.70;99.90;;;;;;5067748;28;20040;-83
2023/05/01 02:08:38;;;;;;;10.98;4.03;;;5.60;99.90;;;;;;5055500;28;20047;-84
2023/05/01 02:11:05;;;;;;;8.75;4.35;;;5.60;99.90;;;;;;5072953;28;20075;-83
2023/05/01 02:13:32;;;;;;;13.00;5.00;;;5.60;99.90;;;;;;5074148;28;20486;-84
2023/05/01 02:15:59;;;;;;;9.30;4.60;;;5.60;99.90;;;;;;5061693;28;20040;-86
2023/05/01 02:18:27;;;;;;;8.02;4.43;;;5.60;99.90;;;;;;5083626;28;20048;-84
2023/05/01 02:20:57;;;;;;;9.95;4.55;;;5.60;99.90;;;;;;5052233;28;20044;-86
2023/05/01 02:23:25;;;;;;;9.57;4.05;;;5.60;99.90;;;;;;5058608;28;20050;-83
2023/05/01 02:25:53;;;;;;;8.95;4.88;;;5.60;99.90;;;;;;5039912;28;20036;-83
2023/05/01 02:28:22;;;;;;;12.68;4.30;;;5.60;99.90;;;;;;5055498;28;20048;-84
2023/05/01 02:30:47;;;;;;;8.40;4.35;;;5.60;99.90;;;;;;5046085;28;20060;-83
2023/05/01 02:33:13;;;;;;;8.68;4.80;;;5.50;99.90;;;;;;5055480;28;20141;-84
2023/05/01 02:35:40;;;;;;;7.60;4.10;;;5.50;99.90;;;;;;5069911;28;20064;-85
2023/05/01 02:38:07;;;;;;;8.10;3.95;;;5.40;99.90;;;;;;5052223;28;20131;-84
2023/05/01 02:40:33;;;;;;;10.32;4.57;;;5.40;99.90;;;;;;5037029;28;20481;-84
2023/05/01 02:43:04;;;;;;;7.85;4.20;;;5.20;99.90;;;;;;5055797;28;20071;-85
2023/05/01 02:45:30;;;;;;;6.28;4.00;;;5.30;99.90;;;;;;5056323;28;20083;-84
2023/05/01 02:47:59;;;;;;;8.00;3.60;;;5.40;99.90;;;;;;5049318;28;20043;-89
2023/05/01 02:50:26;;;;;;;9.02;4.05;;;5.20;99.90;;;;;;5075070;28;20051;-85
2023/05/01 02:52:52;;;;;;;9.95;4.65;;;5.10;99.90;;;;;;5055515;28;20048;-83
2023/05/01 02:55:18;;;;;;;7.47;4.20;;;5.10;99.90;;;;;;5054682;28;20086;-87
2023/05/01 02:57:44;;;;;;;8.60;4.00;;;5.00;99.90;;;;;;5073070;28;20047;-85
2023/05/01 03:00:12;;;;;;;9.48;4.78;;;5.00;99.90;;;;;;5058850;28;20048;-85
2023/05/01 03:02:39;;;;;;;9.15;4.28;;;4.90;99.90;;;;;;5047656;28;20044;-84
2023/05/01 03:05:05;;;;;;;9.63;5.03;;;4.90;99.90;;;;;;5070276;28;20040;-85
2023/05/01 03:07:34;;;;;;;9.50;4.78;;;4.80;99.90;;;;;;5064546;28;20048;-84
2023/05/01 03:10:06;;;;;;;8.95;4.22;;;4.80;99.90;;;;;;5069616;28;20081;-89
2023/05/01 03:12:32;;;;;;;6.88;3.95;;;4.80;99.90;;;;;;5064961;28;20056;-84
2023/05/01 03:14:58;;;;;;;10.15;4.85;;;4.70;99.90;;;;;;5070053;28;20401;-85
2023/05/01 03:17:24;;;;;;;9.23;4.70;;;4.70;99.90;;;;;;5037442;28;20055;-85
2023/05/01 03:19:50;;;;;;;9.27;4.60;;;4.60;99.90;;;;;;5071235;28;20544;-84
2023/05/01 03:22:16;;;;;;;7.40;4.20;;;4.60;99.90;;;;;;5053968;28;20135;-85
2023/05/01 03:24:42;;;;;;;8.90;4.75;;;4.50;99.90;;;;;;5056981;28;20044;-85
2023/05/01 03:27:08;;;;;;;11.35;4.20;;;4.70;99.90;;;;;;5065524;28;20603;-85
2023/05/01 03:29:36;;;;;;;8.27;4.20;;;4.60;99.90;;;;;;5056136;28;20047;-87
2023/05/01 03:32:03;;;;;;;8.50;4.40;;;4.60;99.90;;;;;;5051308;28;20052;-90
2023/05/01 03:34:29;;;;;;;9.05;4.75;;;4.60;99.90;;;;;;5070472;28;20047;-85
2023/05/01 03:36:55;;;;;;;12.77;4.68;;;4.60;99.90;;;;;;5074861;28;20055;-84
2023/05/01 03:39:21;;;;;;;10.50;4.97;;;4.70;99.90;;;;;;5073243;28;20052;-84
2023/05/01 03:41:47;;;;;;;8.35;4.35;;;4.60;99.90;;;;;;5054445;28;20055;-84
2023/05/01 03:44:12;;;;;;;9.80;4.40;;;4.60;99.90;;;;;;5070706;28;20040;-84
2023/05/01 03:46:38;;;;;;;13.35;4.80;;;4.50;99.90;;;;;;5065749;28;20037;-86
2023/05/01 03:49:04;;;;;;;12.05;4.80;;;4.60;99.90;;;;;;5055305;28;20128;-89
2023/05/01 03:51:30;;;;;;;10.13;4.43;;;4.50;99.90;;;;;;5053590;28;20208;-87
2023/05/01 03:53:57;;;;;;;8.55;4.60;;;4.50;99.90;;;;;;5034865;28;20106;-84
2023/05/01 03:56:24;;;;;;;13.68;4.80;;;4.50;99.90;;;;;;5068648;28;20081;-84
2023/05/01 03:58:51;;;;;;;8.82;4.78;;;4.40;99.90;;;;;;5071484;28;20546;-84
2023/05/01 04:01:17;;;;;;;9.60;4.75;;;4.40;99.90;;;;;;5064161;28;20116;-84
2023/05/01 04:03:43;;;;;;;9.50;5.10;;;4.30;99.90;;;;;;5070897;28;20048;-84
2023/05/01 04:06:09;;;;;;;10.95;4.53;;;4.40;99.90;;;;;;5053585;28;20101;-89
2023/05/01 04:08:35;;;;;;;8.88;4.35;;;4.50;99.90;;;;;;5040034;28;20079;-85
2023/05/01 04:11:00;;;;;;;11.18;5.00;;;4.50;99.90;;;;;;5039256;28;20658;-84
2023/05/01 04:13:26;;;;;;;9.88;5.57;;;4.50;99.90;;;;;;5069535;28;20473;-84
2023/05/01 04:15:54;;;;;;;8.02;5.00;;;4.60;99.90;;;;;;5066181;28;20033;-84
2023/05/01 04:18:20;;;;;;;9.52;4.55;;;4.80;99.90;;;;;;5038729;28;20050;-85
2023/05/01 04:20:46;;;;;;;10.20;4.80;;;4.60;99.90;;;;;;5056275;28;20416;-83
2023/05/01 04:23:11;;;;;;;10.15;4.93;;;4.50;99.90;;;;;;5064677;28;20354;-85
2023/05/01 04:25:37;;;;;;;9.40;5.15;;;4.60;99.90;;;;;;5050620;28;20042;-84
2023/05/01 04:28:03;;;;;;;11.25;4.68;;;4.60;99.90;;;;;;5050498;28;20036;-84
2023/05/01 04:30:30;;;;;;;10.10;4.55;;;4.60;99.90;;;;;;5070465;28;20047;-84
2023/05/01 04:32:57;;;;;;;9.00;4.78;;;4.60;99.90;;;;;;5056284;28;20115;-84
2023/05/01 04:35:24;;;;;;;10.80;5.18;;;4.60;99.90;;;;;;5055956;28;20076;-84
2023/05/01 04:37:51;;;;;;;9.82;4.82;;;4.60;99.90;;;;;;5063469;28;20055;-84
2023/05/01 04:40:16;;;;;;;9.45;4.47;;;4.80;99.90;;;;;;5053579;28;20082;-84
2023/05/01 04:42:42;;;;;;;11.75;5.22;;;4.70;99.90;;;;;;5037257;28;20060;-84
2023/05/01 04:45:08;;;;;;;11.27;5.18;;;4.80;99.90;;;;;;5053825;28;20098;-84
2023/05/01 04:47:34;;;;;;;10.23;5.28;;;4.90;99.90;;;;;;5037524;28;20052;-84
2023/05/01 04:50:00;;;;;;;11.77;5.05;;;4.90;99.90;;;;;;5060256;28;20067;-85
2023/05/01 04:52:26;;;;;;;10.90;5.38;;;5.00;99.90;;;;;;5058895;28;20051;-84
2023/05/01 04:54:51;;;;;;;9.95;4.75;;;5.10;99.90;;;;;;5056672;28;20414;-83
2023/05/01 04:57:17;;;;;;;10.43;5.03;;;5.30;99.90;;;;;;5061588;28;20078;-84
2023/05/01 04:59:43;;;;;;;10.15;5.28;;;5.30;99.90;;;;;;5084432;28;20469;-84
2023/05/01 05:02:09;;;;;;;10.98;5.40;;;5.50;99.90;;;;;;5076655;28;20043;-84
2023/05/01 05:04:34;;;;;;;9.45;5.28;;;5.50;99.90;;;;;;5056964;28;20120;-83
2023/05/01 05:07:00;;;;;;;9.80;4.82;;;5.70;99.90;;;;;;5053274;28;20162;-83
2023/05/01 05:09:28;;;;;;;12.25;5.40;;;5.80;99.90;;;;;;5067973;28;20047;-84
2023/05/01 05:11:54;;;;;;;10.57;5.70;;;5.90;99.90;;;;;;5040598;28;20052;-84
2023/05/01 05:14:20;;;;;;;11.65;4.93;;;6.00;99.90;;;;;;5056080;28;20369;-85
2023/05/01 05:16:46;;;;;;;10.43;6.10;;;6.10;99.90;;;;;;5060530;28;20112;-85
2023/05/01 05:19:12;;;;;;;15.20;5.60;;;6.20;99.90;;;;;;5043996;28;20439;-83
2023/05/01 05:21:38;;;;;;;11.05;5.20;;;6.30;99.90;;;;;;5035799;28;20047;-84
2023/05/01 05:24:03;;;;;;;11.88;5.78;;;6.40;99.90;;;;;;5042671;28;20405;-82
2023/05/01 05:26:29;;;;;;;9.60;5.20;;;6.40;99.90;;;;;;5066569;28;20110;-82
2023/05/01 05:28:55;;;;;;;9.85;5.43;;;6.50;99.90;;;;;;5064286;28;20052;-82
2023/05/01 05:31:22;;;;;;;12.88;5.20;;;6.50;99.90;;;;;;5083623;28;20492;-85
2023/05/01 05:33:48;;;;;;;12.98;5.93;;;6.60;99.90;;;;;;5046393;28;20044;-83
2023/05/01 05:36:13;;;;;;;8.63;4.82;;;6.70;99.90;;;;;;5058841;28;20396;-83
2023/05/01 05:38:39;;;;;;;13.98;5.85;;;6.80;99.90;;;;;;5040420;28;20735;-84
2023/05/01 05:41:05;;;;;;;9.63;5.40;;;6.90;99.90;;;;;;5070276;28;20056;-84
2023/05/01 05:43:31;;;;;;;9.23;4.70;;;6.90;99.90;;;;;;5047164;28;20078;-87
2023/05/01 05:45:58;;;;;;;10.65;5.00;;;7.00;99.90;;;;;;5048275;28;20041;-83
2023/05/01 05:48:24;;;;;;;11.43;5.95;;;7.10;99.90;;;;;;5088581;28;20040;-83
2023/05/01 05:50:51;;;;;;;12.13;5.20;;;7.30;99.90;;;;;;5075689;28;20128;-84
2023/05/01 05:53:18;;;;;;;14.48;5.45;;;7.40;99.90;;;;;;5076706;28;20044;-83
2023/05/01 05:55:45;;;;;;;13.80;5.68;;;7.50;99.90;;;;;;5039169;28;20101;-83
2023/05/01 05:58:10;;;;;;;12.15;5.35;;;7.60;99.90;;;;;;5047287;28;20054;-83
2023/05/01 06:00:36;;;;;;;9.65;5.88;;;7.70;99.90;;;;;;5050766;28;20044;-82
2023/05/01 06:03:02;;;;;;;13.55;6.03;;;7.80;99.90;;;;;;5080217;28;20043;-82
2023/05/01 06:05:29;;;;;;;7.85;5.18;;;8.00;99.90;;;;;;5057095;28;20094;-84
2023/05/01 06:07:54;;;;;;;12.77;6.00;;;8.20;99.90;;;;;;5052012;28;20043;-85
2023/05/01 06:10:20;;;;;;;11.52;5.20;;;8.30;99.90;;;;;;5036358;28;20975;-83
2023/05/01 06:12:47;;;;;;;8.15;5.10;;;8.50;99.90;;;;;;5051052;28;20069;-85
2023/05/01 06:15:15;;;;;;;12.35;5.10;;;8.80;99.90;;;;;;5071650;28;20048;-82
2023/05/01 06:17:42;;;;;;;10.77;5.30;;;9.00;99.90;;;;;;5073083;28;20127;-86
2023/05/01 06:20:09;;;;;;;10.20;5.28;;;9.20;99.90;;;;;;5074622;28;20113;-80
2023/05/01 06:22:34;;;;;;;9.90;5.57;;;9.30;99.90;;;;;;5058602;28;20060;-83
2023/05/01 06:25:00;;;;;;;10.23;5.15;;;9.50;93.50;;;;;;5075091;28;20576;-81
2023/05/01 06:27:26;;;;;;;8.82;5.07;;;9.70;92.40;;;;;;5039867;28;20110;-87
2023/05/01 06:29:52;;;;;;;11.40;5.60;;;9.90;68.60;;;;;;5083703;28;20097;-80
2023/05/01 06:32:18;;;;;;;11.82;5.20;;;10.10;13.20;;;;;;5058086;28;20044;-81
2023/05/01 06:34:43;;;;;;;9.95;5.90;;;10.20;1.00;;;;;;5057045;28;20036;-80
2023/05/01 06:37:09;;;;;;;8.80;5.43;;;10.40;1.00;;;;;;5057724;28;20405;-82
2023/05/01 06:39:35;;;;;;;10.27;4.80;;;10.60;1.00;;;;;;5056275;28;20120;-81
2023/05/01 06:42:02;;;;;;;7.93;4.60;;;10.80;1.00;;;;;;5056952;28;20640;-81
2023/05/01 06:44:28;;;;;;;12.45;4.82;;;11.00;1.00;;;;;;5064604;28;20044;-80
2023/05/01 06:46:55;;;;;;;11.57;5.30;;;11.10;1.00;;;;;;5048509;28;20047;-80
2023/05/01 06:49:21;;;;;;;9.00;4.35;;;11.20;99.90;;;;;;5057338;28;21295;-80
2023/05/01 06:51:47;;;;;;;8.82;4.38;;;11.40;99.90;;;;;;5074391;28;20036;-80
2023/05/01 06:54:13;;;;;;;6.70;4.25;;;11.60;99.90;;;;;;5049159;28;20055;-80
2023/05/01 06:56:38;;;;;;;10.02;4.25;;;11.60;99.90;;;;;;5071192;28;20122;-81
2023/05/01 06:59:04;;;;;;;6.95;4.30;;;11.80;99.90;;;;;;5073860;28;20869;-80
2023/05/01 07:01:30;;;;;;;8.30;5.05;;;11.90;99.90;;;;;;5051378;28;20048;-80
2023/05/01 07:03:56;;;;;;;10.13;4.55;;;12.00;99.90;;;;;;5051868;28;20044;-84
2023/05/01 07:06:22;;;;;;;7.93;4.82;;;12.10;99.90;;;;;;5074040;28;20477;-82
2023/05/01 07:08:48;;;;;;;9.18;4.20;;;12.10;99.90;;;;;;5056859;28;20048;-83
2023/05/01 07:11:13;;;;;;;10.63;4.85;;;12.20;99.90;;;;;;5053350;28;20048;-82
2023/05/01 07:13:39;;;;;;;8.00;4.40;;;12.30;99.90;;;;;;5052658;28;20136;-83
2023/05/01 07:16:05;;;;;;;6.63;4.10;;;12.40;99.90;;;;;;5069397;28;20036;-84
2023/05/01 07:18:31;;;;;;;6.97;3.88;;;12.50;99.90;;;;;;5057329;28;20043;-81
2023/05/01 07:20:57;;;;;;;10.38;4.30;;;12.50;99.90;;;;;;5057074;28;20507;-81
2023/05/01 07:23:24;;;;;;;9.57;4.78;;;12.60;99.90;;;;;;5087508;28;20046;-80
2023/05/01 07:25:50;;;;;;;7.20;4.30;;;12.70;99.90;;;;;;5057522;28;20452;-84
2023/05/01 07:28:16;;;;;;;7.07;4.70;;;12.90;99.90;;;;;;5057646;28;20048;-81
2023/05/01 07:30:42;;;;;;;6.20;3.78;;;13.00;99.90;;;;;;5056922;28;20048;-81
2023/05/01 07:33:08;;;;;;;5.55;3.97;;;13.10;99.90;;;;;;5057524;28;20501;-81
2023/05/01 07:35:34;;;;;;;7.80;4.28;;;13.20;91.90;;;;;;5063423;28;20398;-80
2023/05/01 07:37:59;;;;;;;10.23;4.30;;;13.20;69.40;;;;;;5050803;28;20134;-82
2023/05/01 07:40:25;;;;;;;9.93;4.43;;;13.20;65.20;;;;;;5057120;28;20078;-81
2023/05/01 07:42:51;;;;;;;5.07;4.00;;;13.30;50.80;;;;;;5073504;28;20077;-81
2023/05/01 07:45:17;;;;;;;10.82;3.80;;;13.40;42.40;;;;;;5040801;28;20036;-81
2023/05/01 07:47:42;;;;;;;7.07;3.95;;;13.50;28.60;;;;;;5056974;28;20067;-81
2023/05/01 07:50:10;;;;;;;8.55;3.75;;;13.50;6.60;;;;;;5044709;28;20477;-82
2023/05/01 07:52:36;;;;;;;8.63;3.75;;;13.60;1.00;;;;;;5050369;28;20515;-80
2023/05/01 07:55:02;;;;;;;7.65;3.67;;;13.60;1.00;;;;;;5048936;28;20062;-81
2023/05/01 07:57:28;;;;;;;8.30;3.95;;;13.60;1.00;;;;;;5071910;28;20044;-81
2023/05/01 07:59:58;;;;;;;7.10;3.45;;;13.80;1.00;;;;;;5042480;28;20544;-80
2023/05/01 08:02:23;;;;;;;5.07;3.75;;;14.00;1.00;;;;;;5071335;28;20048;-81
2023/05/01 08:04:49;;;;;;;8.90;3.83;;;14.20;1.00;;;;;;5042694;28;20044;-81
2023/05/01 08:07:15;;;;;;;7.80;3.63;;;14.30;1.00;;;;;;5048746;28;20056;-82
2023/05/01 08:09:41;;;;;;;8.18;4.03;;;14.20;1.00;;;;;;5057604;28;20044;-85
2023/05/01 08:12:07;;;;;;;9.55;3.75;;;14.30;1.00;;;;;;5060164;28;20084;-83
2023/05/01 08:14:32;;;;;;;9.80;3.65;;;14.40;1.00;;;;;;5061016;28;20662;-81
2023/05/01 08:16:58;;;;;;;8.90;3.78;;;14.50;1.00;;;;;;5077628;28;20037;-81
2023/05/01 08:19:24;;;;;;;8.90;3.47;;;14.60;1.00;;;;;;5051336;28;20057;-82
2023/05/01 08:21:50;;;;;;;6.55;3.75;;;14.70;1.00;;;;;;5055694;28;20052;-84
2023/05/01 08:24:15;;;;;;;5.88;3.25;;;14.70;1.00;;;;;;5074100;28;20050;-81
2023/05/01 08:26:41;;;;;;;6.38;3.15;;;14.80;1.00;;;;;;5066649;28;20406;-81
2023/05/01 08:29:07;;;;;;;7.18;3.80;;;15.00;1.00;;;;;;5070519;28;20125;-81
2023/05/01 08:31:36;;;;;;;7.05;3.50;;;15.10;1.00;;;;;;5074278;28;20048;-81
2023/05/01 08:34:02;;;;;;;5.47;3.33;;;15.20;1.00;;;;;;5044893;28;20058;-81
2023/05/01 08:36:29;;;;;;;8.07;3.58;;;15.40;1.00;;;;;;5039250;28;20059;-81
2023/05/01 08:38:55;;;;;;;6.45;3.70;;;15.50;1.00;;;;;;5053797;28;20092;-82
2023/05/01 08:41:22;;;;;;;6.93;3.40;;;15.70;1.00;;;;;;5073180;28;20082;-83
2023/05/01 08:43:48;;;;;;;7.65;3.38;;;15.90;1.00;;;;;;5072259;28;20056;-83
2023/05/01 08:46:57;;;;;;;5.18;3.10;;;16.10;1.00;;;;;;5073337;28;20068;-83
2023/05/01 08:49:25;;;;;;;7.75;3.15;;;16.50;1.00;;;;;;5065329;28;20060;-83
2023/05/01 08:51:55;;;;;;;4.93;2.85;;;17.30;1.00;;;;;;5039341;28;20067;-83
2023/05/01 08:54:22;;;;;;;6.15;3.17;;;18.10;1.00;;;;;;5056390;28;20037;-83
2023/05/01 08:56:50;;;;;;;8.80;3.20;;;18.70;1.00;;;;;;5056513;28;20044;-88
2023/05/01 08:59:18;;;;;;;12.45;3.28;;;19.10;1.00;;;;;;5056596;28;20618;-83
2023/05/01 09:01:46;;;;;;;6.47;2.80;;;19.60;1.00;;;;;;5056984;28;20098;-83
2023/05/01 09:04:13;;;;;;;6.25;2.80;;;20.20;1.00;;;;;;5039818;28;20044;-83
2023/05/01 09:06:39;;;;;;;7.15;3.35;;;20.80;1.00;;;;;;5085601;28;20109;-85
2023/05/01 09:09:05;;;;;;;4.22;2.55;;;21.10;1.00;;;;;;5072945;28;20768;-83
2023/05/01 09:11:31;;;;;;;7.97;2.95;;;21.70;1.00;;;;;;5060159;28;20056;-84
2023/05/01 09:13:59;;;;;;;6.85;2.92;;;22.10;1.00;;;;;;5059469;28;20477;-83
2023/05/01 09:16:25;;;;;;;4.22;2.40;;;22.50;1.00;;;;;;5093430;28;20044;-83
2023/05/01 09:18:54;;;;;;;3.95;2.40;;;22.70;1.00;;;;;;5048694;28;20044;-89
2023/05/01 09:21:19;;;;;;;5.63;2.45;;;22.90;1.00;;;;;;5073568;28;20066;-84
2023/05/01 09:23:49;;;;;;;4.57;2.53;;;22.80;1.00;;;;;;5073212;28;20133;-83
2023/05/01 09:26:15;;;;;;;7.47;2.60;;;23.00;1.00;;;;;;5052237;28;20045;-83
2023/05/01 09:28:47;;;;;;;6.65;2.30;;;23.50;1.00;;;;;;5071605;28;20127;-83
2023/05/01 09:31:29;;;;;;;6.95;2.40;;;24.10;1.00;;;;;;5059550;28;20062;-84
2023/05/01 09:33:57;;;;;;;7.47;3.40;;;24.70;1.00;;;;;;5057278;28;20052;-84
2023/05/01 09:36:24;;;;;;;4.97;2.38;;;25.10;1.00;;;;;;5059741;28;20063;-83
2023/05/01 09:38:50;;;;;;;6.57;2.72;;;25.40;1.00;;;;;;5075902;28;20052;-84
2023/05/01 09:41:16;;;;;;;5.45;2.75;;;25.50;1.00;;;;;;5058937;28;20051;-83
2023/05/01 09:43:52;;;;;;;4.80;2.20;;;25.50;1.00;;;;;;5074972;28;20047;-85
2023/05/01 09:46:18;;;;;;;3.60;2.40;;;25.50;1.00;;;;;;5066195;28;20052;-86
2023/05/01 09:48:55;;;;;;;5.25;2.30;;;25.50;1.00;;;;;;5061727;28;20097;-83
2023/05/01 09:51:23;;;;;;;4.05;2.30;;;25.50;1.00;;;;;;5076328;28;20047;-85
2023/05/01 09:53:50;;;;;;;3.40;2.30;;;26.00;1.00;;;;;;5063262;28;20047;-83
2023/05/01 09:56:16;;;;;;;5.50;2.83;;;26.50;1.00;;;;;;5058706;28;20048;-84
2023/05/01 09:58:43;;;;;;;4.65;2.67;;;26.80;1.00;;;;;;5042944;28;20405;-85
2023/05/01 10:01:09;;;;;;;7.80;2.60;;;27.10;1.00;;;;;;5075646;28;20056;-87
2023/05/01 10:03:34;;;;;;;8.50;3.58;;;27.30;1.00;;;;;;5072180;28;20051;-83
2023/05/01 10:06:02;;;;;;;7.18;2.63;;;27.50;1.00;;;;;;5058787;28;20048;-83
2023/05/01 10:08:48;;;;;;;4.43;2.20;;;28.00;1.00;;;;;;5071906;28;20040;-83
2023/05/01 10:11:14;;;;;;;6.00;2.42;;;28.40;1.00;;;;;;5058003;28;20051;-83
2023/05/01 10:13:41;;;;;;;4.68;2.10;;;28.40;1.00;;;;;;5058040;28;20052;-83
2023/05/01 10:16:26;;;;;;;3.08;1.90;;;28.00;1.00;;;;;;5074763;28;20036;-86
2023/05/01 10:18:55;;;;;;;5.68;1.65;;;27.40;1.00;;;;;;5044829;28;20455;-90
2023/05/01 10:21:21;;;;;;;8.30;1.88;;;27.30;1.00;;;;;;5059121;28;20051;-83
2023/05/01 10:23:47;;;;;;;4.38;1.30;;;27.60;1.00;;;;;;5058364;28;20048;-81
2023/05/01 10:26:15;;;;;;;2.25;1.00;;;27.80;1.00;;;;;;5055355;28;20040;-81
2023/05/01 10:28:43;;;;;;;1.75;0.80;;;27.40;1.00;;;;;;5074931;28;20043;-80
2023/05/01 10:31:11;;;;;;;2.85;1.20;;;27.40;1.00;;;;;;5072111;28;20127;-80
2023/05/01 10:33:39;;;;;;;3.45;1.23;;;27.50;1.00;;;;;;5071879;28;20048;-81
2023/05/01 10:36:08;;;;;;;2.70;1.10;;;27.70;1.00;;;;;;5084232;28;20044;-81
2023/05/01 10:38:34;;;;;;;2.05;1.10;;;28.00;1.00;;;;;;5058158;28;20051;-80
2023/05/01 10:41:00;;;;;;;4.20;1.40;;;28.00;1.00;;;;;;5058894;28;20052;-82
2023/05/01 10:43:28;;;;;;;2.95;1.15;;;27.80;1.00;;;;;;5057713;28;20052;-80
2023/05/01 10:46:09;;;;;;;2.60;1.10;;;27.90;1.00;;;;;;5058357;28;20080;-81
2023/05/01 10:48:41;;;;;;;3.20;1.50;;;28.10;1.00;;;;;;5070035;28;20051;-82
2023/05/01 10:51:09;;;;;;;1.80;1.10;;;28.40;1.00;;;;;;5055304;28;20048;-83
2023/05/01 10:53:35;;;;;;;3.92;1.13;;;28.70;1.00;;;;;;5073668;28;20054;-82
2023/05/01 10:56:04;;;;;;;3.53;1.15;;;28.40;1.00;;;;;;5074660;28;20040;-80
2023/05/01 10:58:39;;;;;;;1.58;1.15;;;28.30;1.00;;;;;;5068446;28;20051;-82
2023/05/01 11:01:27;;;;;;;1.85;0.73;;;28.30;1.00;;;;;;5068060;28;20113;-84
2023/05/01 11:03:53;;;;;;;4.05;1.25;;;28.40;1.00;;;;;;5057465;28;20421;-81
2023/05/01 11:06:19;;;;;;;2.95;1.10;;;28.60;1.00;;;;;;5073006;28;20061;-80
2023/05/01 11:08:46;;;;;;;2.90;1.25;;;29.00;1.00;;;;;;5055681;28;20564;-80
2023/05/01 11:11:21;;;;;;;1.65;0.82;;;29.50;1.00;;;;;;5058656;28;20079;-81
2023/05/01 11:14:07;;;;;;;5.65;1.15;;;30.10;1.00;;;;;;5074247;28;20048;-81
2023/05/01 11:16:36;;;;;;;1.95;1.27;;;30.10;1.00;;;;;;5073396;28;20076;-80
2023/05/01 11:19:09;;;;;;;1.70;1.50;;;29.20;1.00;;;;;;5059905;28;20060;-81
2023/05/01 11:21:40;;;;;;;4.32;1.45;;;28.50;1.00;;;;;;5072797;28;20043;-81
2023/05/01 11:24:07;;;;;;;2.17;1.50;;;28.30;1.00;;;;;;5056287;28;20048;-87
2023/05/01 11:26:37;;;;;;;2.90;1.65;;;28.50;1.00;;;;;;5072257;28;20050;-82
2023/05/01 11:29:04;;;;;;;2.88;1.65;;;28.80;1.00;;;;;;5068904;28;20062;-81
2023/05/01 11:31:30;;;;;;;2.40;1.50;;;28.80;1.00;;;;;;5059545;28;20076;-84
2023/05/01 11:33:59;;;;;;;2.67;1.17;;;28.70;1.00;;;;;;5056932;28;20043;-81
2023/05/01 11:36:26;;;;;;;3.33;1.27;;;28.80;1.00;;;;;;5055405;28;20048;-82
2023/05/01 11:38:58;;;;;;;4.72;1.67;;;29.50;1.00;;;;;;5073020;28;20090;-80
2023/05/01 11:41:26;;;;;;;2.28;1.27;;;29.90;1.00;;;;;;5056226;28;20048;-81
2023/05/01 11:43:58;;;;;;;2.80;1.45;;;29.60;1.00;;;;;;5073431;28;20055;-81
2023/05/01 11:46:31;;;;;;;2.17;1.33;;;28.90;1.00;;;;;;5072869;28;20492;-80
2023/05/01 11:49:00;;;;;;;3.42;1.30;;;27.70;1.00;;;;;;5060564;28;20055;-80
2023/05/01 11:51:26;;;;;;;2.90;1.25;;;26.50;1.00;;;;;;5056372;28;20048;-82
2023/05/01 11:54:03;;;;;;;2.75;1.25;;;25.40;1.00;;;;;;5056972;28;20486;-82
2023/05/01 11:56:30;;;;;;;3.17;1.50;;;24.40;1.00;;;;;;5071678;28;20052;-81
2023/05/01 11:58:58;;;;;;;3.70;1.40;;;23.70;1.00;;;;;;5073848;28;20083;-81
2023/05/01 12:01:36;;;;;;;4.43;1.23;;;23.20;1.00;;;;;;5056109;28;20101;-81
2023/05/01 12:04:02;;;;;;;3.40;1.77;;;22.90;1.00;;;;;;5056941;28;20048;-81
2023/05/01 12:06:54;;;;;;;3.35;1.30;;;22.90;1.00;;;;;;5056214;28;20044;-81
2023/05/01 12:09:23;;;;;;;2.08;1.27;;;22.90;1.00;;;;;;5052913;28;20073;-81
2023/05/01 12:11:50;;;;;;;2.53;1.42;;;23.10;1.00;;;;;;5073492;28;20139;-81
2023/05/01 12:14:17;;;;;;;1.92;1.30;;;23.20;1.00;;;;;;5072785;28;20044;-82
2023/05/01 12:16:44;;;;;;;2.33;1.40;;;23.30;1.00;;;;;;5055923;28;20044;-82
2023/05/01 12:19:12;;;;;;;2.42;1.35;;;23.30;1.00;;;;;;5063172;28;20044;-85
2023/05/01 12:21:39;;;;;;;1.50;1.30;;;23.40;1.00;;;;;;5067472;28;20048;-81
2023/05/01 12:24:17;;;;;;;2.45;1.10;;;23.60;1.00;;;;;;5068163;28;20105;-82
2023/05/01 12:26:44;;;;;;;1.20;0.90;;;23.80;1.00;;;;;;5049768;28;20051;-81
2023/05/01 12:29:11;;;;;;;1.17;0.75;;;23.70;1.00;;;;;;5056217;28;20051;-83
2023/05/01 12:31:45;;;;;;;2.50;1.20;;;23.60;1.00;;;;;;5056526;28;20518;-82
2023/05/01 12:34:11;;;;;;;2.38;1.05;;;23.40;1.00;;;;;;5069825;28;20040;-82
2023/05/01 12:36:37;;;;;;;1.65;1.00;;;23.20;1.00;;;;;;5062197;28;20669;-81
2023/05/01 12:39:12;;;;;;;2.67;0.65;;;23.10;1.00;;;;;;5056763;28;20055;-81
2023/05/01 12:41:40;;;;;;;2.25;0.88;;;23.10;1.00;;;;;;5042938;28;20049;-82
2023/05/01 12:44:16;;;;;;;1.58;0.85;;;23.40;1.00;;;;;;5075455;28;20060;-83
2023/05/01 12:46:44;;;;;;;1.15;0.75;;;23.70;1.00;;;;;;5069099;28;20144;-82
2023/05/01 12:49:17;;;;;;;1.45;0.73;;;23.50;1.00;;;;;;5063057;28;20128;-83
2023/05/01 12:51:51;;;;;;;2.70;0.68;;;23.10;1.00;;;;;;5055228;28;20401;-81
2023/05/01 12:54:22;;;;;;;1.92;1.23;;;22.80;1.00;;;;;;5056170;28;20048;-82
2023/05/01 12:56:52;;;;;;;1.23;0.85;;;22.40;1.00;;;;;;5056343;28;20107;-82
2023/05/01 12:59:26;;;;;;;2.53;1.25;;;22.20;1.00;;;;;;5055857;28;20044;-82
2023/05/01 13:02:03;;;;;;;2.55;1.13;;;22.00;1.00;;;;;;5028461;28;20533;-82